createdAt,value
2022-08-12T00:00:20.315Z,4.27
2022-08-12T00:03:05.816Z,4.00
2022-08-12T00:06:04.154Z,3.50
2022-08-12T00:08:55.371Z,3.73
2022-08-12T00:11:42.462Z,3.47
2022-08-12T00:14:28.122Z,3.47
2022-08-12T00:17:14.031Z,3.93
2022-08-12T00:19:59.891Z,5.37
2022-08-12T00:22:46.862Z,3.30
2022-08-12T00:26:21.402Z,2.80
2022-08-12T00:29:01.002Z,3.70
2022-08-12T00:31:46.570Z,3.77
2022-08-12T00:34:33.646Z,3.33
2022-08-12T00:37:19.483Z,3.53
2022-08-12T00:40:11.422Z,4.00
2022-08-12T00:42:40.425Z,3.70
2022-08-12T00:45:07.821Z,3.70
2022-08-12T00:47:35.901Z,3.37
2022-08-12T00:50:04.674Z,3.57
2022-08-12T00:52:33.255Z,3.33
2022-08-12T00:55:01.705Z,3.10
2022-08-12T00:57:36.752Z,3.87
2022-08-12T01:00:12.281Z,3.37
2022-08-12T01:02:42.557Z,3.50
2022-08-12T01:05:30.954Z,3.93
2022-08-12T01:08:17.002Z,3.90
2022-08-12T01:11:04.626Z,3.63
2022-08-12T01:13:34.230Z,3.90
2022-08-12T01:16:03.883Z,4.50
2022-08-12T01:18:33.953Z,3.90
2022-08-12T01:21:09.584Z,4.20
2022-08-12T01:23:51.317Z,3.80
2022-08-12T01:26:21.110Z,4.10
2022-08-12T01:28:50.406Z,4.27
2022-08-12T01:31:19.465Z,4.30
2022-08-12T01:34:03.926Z,4.20
2022-08-12T01:36:54.975Z,3.70
2022-08-12T01:39:24.177Z,3.63
2022-08-12T01:41:54.141Z,4.40
2022-08-12T01:44:22.521Z,4.10
2022-08-12T01:47:05.950Z,4.23
2022-08-12T01:50:01.797Z,4.00
2022-08-12T01:52:33.385Z,3.90
2022-08-12T01:55:01.277Z,3.63
2022-08-12T01:57:57.797Z,4.47
2022-08-12T02:00:55.026Z,3.60
2022-08-12T02:04:12.097Z,4.50
2022-08-12T02:07:23.750Z,4.50
2022-08-12T02:10:50.971Z,3.70
2022-08-12T02:13:48.640Z,4.20
2022-08-12T02:16:46.892Z,4.67
2022-08-12T02:19:23.441Z,4.00
2022-08-12T02:22:14.786Z,4.90
2022-08-12T02:24:44.345Z,4.40
2022-08-12T02:27:13.495Z,4.57
2022-08-12T02:29:41.450Z,4.50
2022-08-12T02:32:09.218Z,4.17
2022-08-12T02:34:37.902Z,4.13
2022-08-12T02:37:05.091Z,3.67
2022-08-12T02:39:35.722Z,4.40
2022-08-12T02:42:04.752Z,4.27
2022-08-12T02:44:40.203Z,4.23
2022-08-12T02:47:58.449Z,4.50
2022-08-12T02:49:58.783Z,4.30
2022-08-12T02:52:27.354Z,4.60
2022-08-12T02:54:59.863Z,3.67
2022-08-12T02:57:26.819Z,4.50
2022-08-12T02:59:54.791Z,4.07
2022-08-12T03:02:24.260Z,6.63
2022-08-12T03:04:56.683Z,4.80
2022-08-12T03:07:49.339Z,4.63
2022-08-12T03:10:17.796Z,4.60
2022-08-12T03:12:49.819Z,4.73
2022-08-12T03:15:22.527Z,4.20
2022-08-12T03:18:30.343Z,4.63
2022-08-12T03:20:58.729Z,4.07
2022-08-12T03:23:29.874Z,4.53
2022-08-12T03:26:03.163Z,4.60
2022-08-12T03:28:53.176Z,4.17
2022-08-12T03:31:30.057Z,5.03
2022-08-12T03:34:03.423Z,5.10
2022-08-12T03:36:36.395Z,5.10
2022-08-12T03:39:15.980Z,5.13
2022-08-12T03:42:01.741Z,5.33
2022-08-12T03:45:00.817Z,4.83
2022-08-12T03:47:46.219Z,5.20
2022-08-12T03:50:32.003Z,5.10
2022-08-12T03:53:17.442Z,5.07
2022-08-12T03:56:02.740Z,4.80
2022-08-12T03:58:48.567Z,4.80
2022-08-12T04:01:15.621Z,4.60
2022-08-12T04:03:54.946Z,4.40
2022-08-12T04:06:34.477Z,5.40
2022-08-12T04:09:15.794Z,5.00
2022-08-12T04:12:04.031Z,5.07
2022-08-12T04:14:33.137Z,4.63
2022-08-12T04:17:00.639Z,5.40
2022-08-12T04:19:27.883Z,5.60
2022-08-12T04:22:01.324Z,4.50
2022-08-12T04:24:35.133Z,5.40
2022-08-12T04:27:05.507Z,5.57
2022-08-12T04:30:21.139Z,5.40
2022-08-12T04:32:20.555Z,5.27
2022-08-12T04:34:47.415Z,5.50
2022-08-12T04:37:16.094Z,4.73
2022-08-12T04:39:44.909Z,5.30
2022-08-12T04:42:11.940Z,6.40
2022-08-12T04:44:39.123Z,5.80
2022-08-12T04:47:06.109Z,5.83
2022-08-12T04:49:34.877Z,4.90
2022-08-12T04:52:02.822Z,6.00
2022-08-12T04:54:30.885Z,6.10
2022-08-12T04:57:04.747Z,5.70
2022-08-12T04:59:47.766Z,6.07
2022-08-12T05:02:22.772Z,5.20
2022-08-12T05:04:51.824Z,6.07
2022-08-12T05:07:20.125Z,5.77
2022-08-12T05:09:58.895Z,5.90
2022-08-12T05:12:34.327Z,5.27
2022-08-12T05:15:01.413Z,5.70
2022-08-12T05:17:28.630Z,5.53
2022-08-12T05:19:57.430Z,5.73
2022-08-12T05:22:27.217Z,5.87
2022-08-12T05:24:54.235Z,5.17
2022-08-12T05:27:22.672Z,5.53
2022-08-12T05:30:07.263Z,5.63
2022-08-12T05:32:37.087Z,5.67
2022-08-12T05:35:07.065Z,6.20
2022-08-12T05:37:37.029Z,5.70
2022-08-12T05:40:10.658Z,6.07
2022-08-12T05:42:38.319Z,5.37
2022-08-12T05:45:06.855Z,5.40
2022-08-12T05:47:42.553Z,5.10
2022-08-12T05:50:20.731Z,5.57
2022-08-12T05:52:48.117Z,6.10
2022-08-12T05:55:15.644Z,6.47
2022-08-12T05:57:48.421Z,5.03
2022-08-12T06:00:16.709Z,5.93
2022-08-12T06:02:43.763Z,4.90
2022-08-12T06:05:10.657Z,5.37
2022-08-12T06:08:01.528Z,5.40
2022-08-12T06:10:32.210Z,5.13
2022-08-12T06:13:04.804Z,5.28
2022-08-12T06:15:35.788Z,6.43
2022-08-12T06:18:13.740Z,5.87
2022-08-12T06:20:43.426Z,6.50
2022-08-12T06:23:12.011Z,5.53
2022-08-12T06:25:39.071Z,5.40
2022-08-12T06:28:15.819Z,6.28
2022-08-12T06:30:49.728Z,5.43
2022-08-12T06:33:59.898Z,5.60
2022-08-12T06:36:21.106Z,7.35
2022-08-12T06:38:49.810Z,5.68
2022-08-12T06:41:35.629Z,5.43
2022-08-12T06:44:05.612Z,5.18
2022-08-12T06:46:36.837Z,5.43
2022-08-12T06:49:04.093Z,6.15
2022-08-12T06:51:32.375Z,5.43
2022-08-12T06:54:00.818Z,5.65
2022-08-12T06:56:59.641Z,6.10
2022-08-12T06:59:15.839Z,5.95
2022-08-12T07:01:49.699Z,6.15
2022-08-12T07:04:36.932Z,5.75
2022-08-12T07:07:09.538Z,5.53
2022-08-12T07:10:04.682Z,6.82
2022-08-12T07:12:27.862Z,4.90
2022-08-12T07:14:56.757Z,4.22
2022-08-12T07:17:23.597Z,4.47
2022-08-12T07:19:52.063Z,5.63
2022-08-12T07:22:19.166Z,3.95
2022-08-12T07:25:06.112Z,4.35
2022-08-12T07:27:40.672Z,3.40
2022-08-12T07:30:09.848Z,3.55
2022-08-12T07:32:36.992Z,3.80
2022-08-12T07:35:04.314Z,3.58
2022-08-12T07:37:31.466Z,3.88
2022-08-12T07:39:59.350Z,3.85
2022-08-12T07:42:27.082Z,3.40
2022-08-12T07:44:54.996Z,3.15
2022-08-12T07:47:21.842Z,3.28
2022-08-12T07:50:03.373Z,3.40
2022-08-12T07:52:42.866Z,3.15
2022-08-12T07:55:10.849Z,3.53
2022-08-12T07:57:57.910Z,2.85
2022-08-12T08:00:26.442Z,2.95
2022-08-12T08:02:54.314Z,3.38
2022-08-12T08:05:23.663Z,2.95
2022-08-12T08:07:53.347Z,3.22
2022-08-12T08:10:20.976Z,3.35
2022-08-12T08:12:53.701Z,2.92
2022-08-12T08:15:58.954Z,3.28
2022-08-12T08:18:26.719Z,3.03
2022-08-12T08:20:55.560Z,2.90
2022-08-12T08:23:29.415Z,2.92
2022-08-12T08:26:02.153Z,3.70
2022-08-12T08:28:29.394Z,3.85
2022-08-12T08:30:56.191Z,3.25
2022-08-12T08:34:09.391Z,2.78
2022-08-12T08:36:16.579Z,3.13
2022-08-12T08:38:57.693Z,2.70
2022-08-12T08:42:17.225Z,2.83
2022-08-12T08:44:31.611Z,2.92
2022-08-12T08:46:58.564Z,2.38
2022-08-12T08:49:25.693Z,2.35
2022-08-12T08:51:52.648Z,2.55
2022-08-12T08:54:19.556Z,2.65
2022-08-12T08:56:50.206Z,2.45
2022-08-12T08:59:19.377Z,2.10
2022-08-12T09:01:47.581Z,2.35
2022-08-12T09:05:07.153Z,2.28
2022-08-12T09:07:17.052Z,2.40
2022-08-12T09:10:02.316Z,2.92
2022-08-12T09:12:55.253Z,2.30
2022-08-12T09:15:35.550Z,2.80
2022-08-12T09:18:08.847Z,2.28
2022-08-12T09:20:38.734Z,2.72
2022-08-12T09:23:59.321Z,2.15
2022-08-12T09:25:58.311Z,2.30
2022-08-12T09:28:32.959Z,2.28
2022-08-12T09:31:00.297Z,2.63
2022-08-12T09:34:25.136Z,2.97
2022-08-12T09:36:30.930Z,1.95
2022-08-12T09:39:01.056Z,4.07
2022-08-12T09:42:33.689Z,2.42
2022-08-12T09:44:39.050Z,2.97
2022-08-12T09:47:10.451Z,2.70
2022-08-12T09:49:42.248Z,2.15
2022-08-12T09:52:15.605Z,2.40
2022-08-12T09:54:43.005Z,2.55
2022-08-12T09:58:46.521Z,2.42
2022-08-12T10:00:16.739Z,2.50
2022-08-12T10:03:05.719Z,2.70
2022-08-12T10:06:27.187Z,2.38
2022-08-12T10:08:27.439Z,2.10
2022-08-12T10:11:20.480Z,2.50
2022-08-12T10:13:48.772Z,3.40
2022-08-12T10:16:22.148Z,2.63
2022-08-12T10:18:53.990Z,2.53
2022-08-12T10:21:23.323Z,2.37
2022-08-12T10:23:56.776Z,2.58
2022-08-12T10:26:42.981Z,2.10
2022-08-12T10:30:37.384Z,2.50
2022-08-12T10:32:44.718Z,2.50
2022-08-12T10:35:09.513Z,2.70
2022-08-12T10:38:34.014Z,2.23
2022-08-12T10:40:31.615Z,2.42
2022-08-12T10:43:18.039Z,4.40
2022-08-12T10:45:47.174Z,2.80
2022-08-12T10:48:21.651Z,2.20
2022-08-12T10:51:00.347Z,2.78
2022-08-12T10:53:46.058Z,2.77
2022-08-12T10:56:17.984Z,2.40
2022-08-12T10:58:46.137Z,2.20
2022-08-12T11:03:02.325Z,2.40
2022-08-12T11:04:23.648Z,2.70
2022-08-12T11:07:08.366Z,2.63
2022-08-12T11:10:00.787Z,2.78
2022-08-12T11:12:55.586Z,3.00
2022-08-12T11:15:33.539Z,2.40
2022-08-12T11:18:11.957Z,2.53
2022-08-12T11:20:47.962Z,2.33
2022-08-12T11:23:35.865Z,2.30
2022-08-12T11:26:05.936Z,2.50
2022-08-12T11:28:37.604Z,2.17
2022-08-12T11:31:11.902Z,2.20
2022-08-12T11:34:05.665Z,2.47
2022-08-12T11:36:28.342Z,2.57
2022-08-12T11:38:55.726Z,2.78
2022-08-12T11:41:30.860Z,2.60
2022-08-12T11:44:35.703Z,3.80
2022-08-12T11:46:52.781Z,2.13
2022-08-12T11:49:32.461Z,2.20
2022-08-12T11:52:01.625Z,2.40
2022-08-12T11:54:29.572Z,2.72
2022-08-12T11:56:59.500Z,2.38
2022-08-12T12:02:19.230Z,2.20
2022-08-12T12:04:52.683Z,2.78
2022-08-12T12:08:36.281Z,2.70
2022-08-12T12:10:15.654Z,2.03
2022-08-12T12:12:49.408Z,2.35
2022-08-12T12:15:24.884Z,2.40
2022-08-12T12:18:04.605Z,2.20
2022-08-12T12:20:34.941Z,2.50
2022-08-12T12:23:01.821Z,2.53
2022-08-12T12:25:59.391Z,2.53
2022-08-12T12:28:35.276Z,2.50
2022-08-12T12:31:04.078Z,2.30
2022-08-12T12:33:56.938Z,2.25
2022-08-12T12:36:24.041Z,2.50
2022-08-12T12:38:56.380Z,2.58
2022-08-12T12:42:40.605Z,2.40
2022-08-12T12:44:13.450Z,2.53
2022-08-12T12:46:54.745Z,2.60
2022-08-12T12:49:26.136Z,2.70
2022-08-12T12:52:19.037Z,2.28
2022-08-12T12:54:52.781Z,2.25
2022-08-12T12:57:36.094Z,2.08
2022-08-12T13:00:18.012Z,2.60
2022-08-12T13:02:53.894Z,2.20
2022-08-12T13:05:42.974Z,2.55
2022-08-12T13:08:28.514Z,2.28
2022-08-12T13:11:04.803Z,2.80
2022-08-12T13:14:08.994Z,2.38
2022-08-12T13:16:21.566Z,2.42
2022-08-12T13:18:53.693Z,2.35
2022-08-12T13:21:33.627Z,2.53
2022-08-12T13:24:09.542Z,2.70
2022-08-12T13:26:40.200Z,1.83
2022-08-12T13:29:11.284Z,2.47
2022-08-12T13:31:46.500Z,2.50
2022-08-12T13:34:31.829Z,2.10
2022-08-12T13:37:04.536Z,2.35
2022-08-12T13:39:37.205Z,2.40
2022-08-12T13:42:13.711Z,1.85
2022-08-12T13:44:41.482Z,2.10
2022-08-12T13:47:18.468Z,1.92
2022-08-12T13:49:55.540Z,1.98
2022-08-12T13:52:23.751Z,2.08
2022-08-12T13:54:54.141Z,2.05
2022-08-12T13:57:26.364Z,2.10
2022-08-12T13:59:55.402Z,2.50
2022-08-12T14:02:27.289Z,2.05
2022-08-12T14:04:56.431Z,1.90
2022-08-12T14:07:26.269Z,2.10
2022-08-12T14:10:16.421Z,2.13
2022-08-12T14:12:54.083Z,2.17
2022-08-12T14:15:36.737Z,2.00
2022-08-12T14:18:15.850Z,2.17
2022-08-12T14:20:49.022Z,2.22
2022-08-12T14:24:05.510Z,2.33
2022-08-12T14:26:11.651Z,2.45
2022-08-12T14:28:39.898Z,2.08
2022-08-12T14:31:18.523Z,2.22
2022-08-12T14:33:48.819Z,2.70
2022-08-12T14:36:20.892Z,2.28
2022-08-12T14:38:49.492Z,2.17
2022-08-12T14:41:18.490Z,2.47
2022-08-12T14:44:04.580Z,1.92
2022-08-12T14:46:35.054Z,2.03
2022-08-12T14:49:27.534Z,1.60
2022-08-12T14:53:03.384Z,1.90
2022-08-12T14:57:24.278Z,2.17
2022-08-12T15:00:23.308Z,1.92
2022-08-12T15:02:53.586Z,2.20
2022-08-12T15:06:03.430Z,2.20
2022-08-12T15:08:12.738Z,2.47
2022-08-12T15:10:46.207Z,2.28
2022-08-12T15:13:23.208Z,1.98
2022-08-12T15:15:50.190Z,2.33
2022-08-12T15:18:20.886Z,1.73
2022-08-12T15:20:54.768Z,1.73
2022-08-12T15:23:24.337Z,2.20
2022-08-12T15:26:02.668Z,1.50
2022-08-12T15:28:34.663Z,2.05
2022-08-12T15:31:02.784Z,1.88
2022-08-12T15:33:45.042Z,1.70
2022-08-12T15:36:19.474Z,2.08
2022-08-12T15:38:52.006Z,1.98
2022-08-12T15:41:22.261Z,2.13
2022-08-12T15:44:16.104Z,1.60
2022-08-12T15:46:37.306Z,1.98
2022-08-12T15:49:04.290Z,1.98
2022-08-12T15:51:57.450Z,1.95
2022-08-12T15:54:33.886Z,1.70
2022-08-12T15:57:08.198Z,2.10
2022-08-12T15:59:59.934Z,1.50
2022-08-12T16:02:27.083Z,1.45
2022-08-12T16:04:56.257Z,1.90
2022-08-12T16:07:29.664Z,1.48
2022-08-12T16:10:05.708Z,1.40
2022-08-12T16:12:56.537Z,1.85
2022-08-12T16:15:26.354Z,1.52
2022-08-12T16:18:18.318Z,1.85
2022-08-12T16:20:42.587Z,1.50
2022-08-12T16:23:36.100Z,1.80
2022-08-12T16:26:14.607Z,1.70
2022-08-12T16:28:43.666Z,1.95
2022-08-12T16:31:14.472Z,1.77
2022-08-12T16:33:59.346Z,1.80
2022-08-12T16:36:30.654Z,1.80
2022-08-12T16:39:01.458Z,1.58
2022-08-12T16:41:39.456Z,1.58
2022-08-12T16:44:08.886Z,1.90
2022-08-12T16:46:37.522Z,1.92
2022-08-12T16:49:09.305Z,2.33
2022-08-12T16:51:46.297Z,1.70
2022-08-12T16:54:35.974Z,1.35
2022-08-12T16:57:05.736Z,2.10
2022-08-12T16:59:54.902Z,2.00
2022-08-12T17:02:34.186Z,1.70
2022-08-12T17:05:05.026Z,1.60
2022-08-12T17:07:38.064Z,2.67
2022-08-12T17:10:07.575Z,2.13
2022-08-12T17:12:37.622Z,2.17
2022-08-12T17:15:21.314Z,1.70
2022-08-12T17:18:15.211Z,1.80
2022-08-12T17:20:47.489Z,1.58
2022-08-12T17:23:17.066Z,1.65
2022-08-12T17:25:46.188Z,1.73
2022-08-12T17:28:16.654Z,1.55
2022-08-12T17:30:44.659Z,1.70
2022-08-12T17:33:17.158Z,2.10
2022-08-12T17:36:03.165Z,1.30
2022-08-12T17:38:30.103Z,1.73
2022-08-12T17:40:57.860Z,1.92
2022-08-12T17:43:57.312Z,1.52
2022-08-12T17:46:23.602Z,1.98
2022-08-12T17:48:54.903Z,1.98
2022-08-12T17:51:24.072Z,2.30
2022-08-12T17:54:11.255Z,1.40
2022-08-12T17:56:40.724Z,1.40
2022-08-12T17:59:12.437Z,1.92
2022-08-12T18:01:44.322Z,2.88
2022-08-12T18:04:22.775Z,1.60
2022-08-12T18:07:02.382Z,2.17
2022-08-12T18:09:32.121Z,1.65
2022-08-12T18:12:24.689Z,2.05
2022-08-12T18:15:08.741Z,1.50
2022-08-12T18:17:39.237Z,1.80
2022-08-12T18:20:15.425Z,2.10
2022-08-12T18:22:46.792Z,1.73
2022-08-12T18:26:15.852Z,1.88
2022-08-12T18:28:29.240Z,1.57
2022-08-12T18:31:03.481Z,1.60
2022-08-12T18:33:43.796Z,1.87
2022-08-12T18:36:13.639Z,1.70
2022-08-12T18:38:44.839Z,1.40
2022-08-12T18:41:33.684Z,1.40
2022-08-12T18:44:07.717Z,1.37
2022-08-12T18:46:54.342Z,1.90
2022-08-12T18:49:34.937Z,1.70
2022-08-12T18:52:08.196Z,1.80
2022-08-12T18:54:41.490Z,1.70
2022-08-12T18:57:19.580Z,2.10
2022-08-12T19:00:07.607Z,1.70
2022-08-12T19:02:40.460Z,2.30
2022-08-12T19:05:10.590Z,1.70
2022-08-12T19:07:58.171Z,1.83
2022-08-12T19:10:30.851Z,2.10
2022-08-12T19:13:23.064Z,1.90
2022-08-12T19:15:54.279Z,1.93
2022-08-12T19:18:24.474Z,1.50
2022-08-12T19:20:56.811Z,1.93
2022-08-12T19:23:27.794Z,1.77
2022-08-12T19:26:10.487Z,1.40
2022-08-12T19:28:38.648Z,1.60
2022-08-12T19:31:56.502Z,2.00
2022-08-12T19:38:04.493Z,1.77
2022-08-12T19:40:20.273Z,2.20
2022-08-12T19:43:01.492Z,2.00
2022-08-12T19:45:43.934Z,2.33
2022-08-12T19:48:20.593Z,2.00
2022-08-12T19:50:53.499Z,1.60
2022-08-12T19:53:24.860Z,1.87
2022-08-12T19:55:57.285Z,2.07
2022-08-12T19:58:25.439Z,2.13
2022-08-12T20:00:56.049Z,1.70
2022-08-12T20:03:38.252Z,2.00
2022-08-12T20:06:22.050Z,1.77
2022-08-12T20:08:56.779Z,2.07
2022-08-12T20:12:09.263Z,2.10
2022-08-12T20:14:19.525Z,2.27
2022-08-12T20:16:51.637Z,1.87
2022-08-12T20:19:23.411Z,1.90
2022-08-12T20:21:50.669Z,2.07
2022-08-12T20:24:19.120Z,2.27
2022-08-12T20:26:48.168Z,2.30
2022-08-12T20:29:16.418Z,2.07
2022-08-12T20:31:44.508Z,1.67
2022-08-12T20:34:12.309Z,1.80
2022-08-12T20:36:44.944Z,2.37
2022-08-12T20:39:17.571Z,2.17
2022-08-12T20:42:07.241Z,2.10
2022-08-12T20:44:38.807Z,2.73
2022-08-12T20:47:19.409Z,2.47
2022-08-12T20:49:55.981Z,2.40
2022-08-12T20:52:29.917Z,3.40
2022-08-12T20:54:58.289Z,2.40
2022-08-12T20:57:37.853Z,2.43
2022-08-12T21:00:18.132Z,2.57
2022-08-12T21:02:50.061Z,2.73
2022-08-12T21:05:41.228Z,2.70
2022-08-12T21:08:27.323Z,2.97
2022-08-12T21:10:55.397Z,2.60
2022-08-12T21:13:29.559Z,2.50
2022-08-12T21:16:06.767Z,2.30
2022-08-12T21:18:38.141Z,2.97
2022-08-12T21:21:06.780Z,3.27
2022-08-12T21:23:50.630Z,2.70
2022-08-12T21:26:18.139Z,2.53
2022-08-12T21:28:58.487Z,2.40
2022-08-12T21:32:35.917Z,2.37
2022-08-12T21:34:19.165Z,3.77
2022-08-12T21:36:52.877Z,3.33
2022-08-12T21:39:27.845Z,3.00
2022-08-12T21:42:06.621Z,2.87
2022-08-12T21:45:46.652Z,2.83
2022-08-12T21:47:23.499Z,2.80
2022-08-12T21:50:02.828Z,3.50
2022-08-12T21:52:48.986Z,2.50
2022-08-12T21:55:17.934Z,3.93
2022-08-12T21:58:02.849Z,2.30
2022-08-12T22:00:36.958Z,3.00
2022-08-12T22:04:04.041Z,2.40
2022-08-12T22:06:31.235Z,3.40
2022-08-12T22:09:09.073Z,3.60
2022-08-12T22:11:49.106Z,2.30
2022-08-12T22:14:24.253Z,2.30
2022-08-12T22:16:55.085Z,3.17
2022-08-12T22:19:23.456Z,2.53
2022-08-12T22:21:54.563Z,1.90
2022-08-12T22:24:26.209Z,2.27
2022-08-12T22:26:57.706Z,3.13
2022-08-12T22:29:43.773Z,1.83
2022-08-12T22:32:12.195Z,2.70
2022-08-12T22:34:39.673Z,2.10
2022-08-12T22:37:11.203Z,2.50
2022-08-12T22:39:46.673Z,2.20
2022-08-12T22:42:34.311Z,2.00
2022-08-12T22:45:23.019Z,2.60
2022-08-12T22:47:55.189Z,2.10
2022-08-12T22:50:28.918Z,1.73
2022-08-12T22:53:15.443Z,1.93
2022-08-12T22:56:00.314Z,2.00
2022-08-12T22:58:40.274Z,1.97
2022-08-12T23:01:11.049Z,2.00
2022-08-12T23:03:48.116Z,1.60
2022-08-12T23:06:23.856Z,2.00
2022-08-12T23:08:52.875Z,2.40
2022-08-12T23:11:23.649Z,2.40
2022-08-12T23:14:01.877Z,1.97
2022-08-12T23:16:33.383Z,2.30
2022-08-12T23:19:10.775Z,2.17
2022-08-12T23:22:05.589Z,2.30
2022-08-12T23:24:56.039Z,2.10
2022-08-12T23:27:50.945Z,2.00
2022-08-12T23:30:25.266Z,2.33
2022-08-12T23:33:00.607Z,1.80
2022-08-12T23:35:58.769Z,1.97
2022-08-12T23:38:31.287Z,1.97
2022-08-12T23:41:00.770Z,2.20
2022-08-12T23:43:39.416Z,2.23
2022-08-12T23:46:12.225Z,1.60
2022-08-12T23:48:47.909Z,2.00
2022-08-12T23:51:25.336Z,2.30
2022-08-12T23:53:59.741Z,1.90
2022-08-12T23:56:33.121Z,2.00
2022-08-12T23:59:08.666Z,2.17
